sensor_id;sensor_type;location;lat;lon;timestamp;temperature;humidity
19829;DHT22;10075;50.924;4.396;2023-08-21T00:01:46;22.50;99.90
19829;DHT22;10075;50.924;4.396;2023-08-21T00:04:15;22.40;99.90
19829;DHT22;10075;50.924;4.396;2023-08-21T00:06:42;22.40;99.90
19829;DHT22;10075;50.924;4.396;2023-08-21T00:09:09;22.40;99.90
19829;DHT22;10075;50.924;4.396;2023-08-21T00:11:36;22.30;99.90
19829;DHT22;10075;50.924;4.396;2023-08-21T00:14:02;22.20;99.90
19829;DHT22;10075;50.924;4.396;2023-08-21T00:16:29;22.20;99.90
19829;DHT22;10075;50.924;4.396;2023-08-21T00:18:56;22.10;99.90
19829;DHT22;10075;50.924;4.396;2023-08-21T00:21:25;22.10;99.90
19829;DHT22;10075;50.924;4.396;2023-08-21T00:23:52;22.10;99.90
19829;DHT22;10075;50.924;4.396;2023-08-21T00:26:19;22.10;99.90
19829;DHT22;10075;50.924;4.396;2023-08-21T00:28:46;22.10;99.90
19829;DHT22;10075;50.924;4.396;2023-08-21T00:31:13;22.10;99.90
19829;DHT22;10075;50.924;4.396;2023-08-21T00:33:39;22.10;99.90
19829;DHT22;10075;50.924;4.396;2023-08-21T00:36:06;22.00;99.90
19829;DHT22;10075;50.924;4.396;2023-08-21T00:38:35;22.00;99.90
19829;DHT22;10075;50.924;4.396;2023-08-21T00:41:02;22.00;99.90
19829;DHT22;10075;50.924;4.396;2023-08-21T00:43:29;22.00;99.90
19829;DHT22;10075;50.924;4.396;2023-08-21T00:45:56;22.00;99.90
19829;DHT22;10075;50.924;4.396;2023-08-21T00:48:23;22.00;99.90
19829;DHT22;10075;50.924;4.396;2023-08-21T00:50:51;22.00;99.90
19829;DHT22;10075;50.924;4.396;2023-08-21T00:53:18;22.10;99.90
19829;DHT22;10075;50.924;4.396;2023-08-21T00:55:46;22.00;99.90
19829;DHT22;10075;50.924;4.396;2023-08-21T00:58:13;21.90;99.90
19829;DHT22;10075;50.924;4.396;2023-08-21T01:00:42;21.90;99.90
19829;DHT22;10075;50.924;4.396;2023-08-21T01:03:12;21.90;99.90
19829;DHT22;10075;50.924;4.396;2023-08-21T01:05:39;21.80;99.90
19829;DHT22;10075;50.924;4.396;2023-08-21T01:08:10;21.80;99.90
19829;DHT22;10075;50.924;4.396;2023-08-21T01:10:45;21.80;99.90
19829;DHT22;10075;50.924;4.396;2023-08-21T01:13:22;21.70;99.90
19829;DHT22;10075;50.924;4.396;2023-08-21T01:15:51;21.60;99.90
19829;DHT22;10075;50.924;4.396;2023-08-21T01:18:20;21.60;99.90
19829;DHT22;10075;50.924;4.396;2023-08-21T01:20:48;21.50;99.90
19829;DHT22;10075;50.924;4.396;2023-08-21T01:23:29;21.50;99.90
19829;DHT22;10075;50.924;4.396;2023-08-21T01:25:56;21.40;99.90
19829;DHT22;10075;50.924;4.396;2023-08-21T01:28:23;21.40;99.90
19829;DHT22;10075;50.924;4.396;2023-08-21T01:30:52;21.20;99.90
19829;DHT22;10075;50.924;4.396;2023-08-21T01:33:21;21.20;99.90
19829;DHT22;10075;50.924;4.396;2023-08-21T01:35:50;21.30;99.90
19829;DHT22;10075;50.924;4.396;2023-08-21T01:38:17;21.20;99.90
19829;DHT22;10075;50.924;4.396;2023-08-21T01:40:47;21.20;99.90
19829;DHT22;10075;50.924;4.396;2023-08-21T01:43:14;21.10;99.90
19829;DHT22;10075;50.924;4.396;2023-08-21T01:45:40;21.10;99.90
19829;DHT22;10075;50.924;4.396;2023-08-21T01:48:08;21.00;99.90
19829;DHT22;10075;50.924;4.396;2023-08-21T01:50:35;21.00;99.90
19829;DHT22;10075;50.924;4.396;2023-08-21T01:53:02;20.90;99.90
19829;DHT22;10075;50.924;4.396;2023-08-21T01:55:29;20.90;99.90
19829;DHT22;10075;50.924;4.396;2023-08-21T01:57:57;20.90;99.90
19829;DHT22;10075;50.924;4.396;2023-08-21T02:00:24;21.00;99.90
19829;DHT22;10075;50.924;4.396;2023-08-21T02:02:51;21.00;99.90
19829;DHT22;10075;50.924;4.396;2023-08-21T02:05:18;21.00;99.90
19829;DHT22;10075;50.924;4.396;2023-08-21T02:07:44;21.00;99.90
19829;DHT22;10075;50.924;4.396;2023-08-21T02:10:11;21.00;99.90
19829;DHT22;10075;50.924;4.396;2023-08-21T02:12:39;21.00;99.90
19829;DHT22;10075;50.924;4.396;2023-08-21T02:15:08;21.00;99.90
19829;DHT22;10075;50.924;4.396;2023-08-21T02:17:36;21.10;99.90
19829;DHT22;10075;50.924;4.396;2023-08-21T02:20:03;21.10;99.90
19829;DHT22;10075;50.924;4.396;2023-08-21T02:22:30;21.00;99.90
19829;DHT22;10075;50.924;4.396;2023-08-21T02:24:57;20.90;99.90
19829;DHT22;10075;50.924;4.396;2023-08-21T02:27:24;20.90;99.90
19829;DHT22;10075;50.924;4.396;2023-08-21T02:29:51;20.80;99.90
19829;DHT22;10075;50.924;4.396;2023-08-21T02:32:19;20.80;99.90
19829;DHT22;10075;50.924;4.396;2023-08-21T02:34:46;20.80;99.90
19829;DHT22;10075;50.924;4.396;2023-08-21T02:37:13;20.80;99.90
19829;DHT22;10075;50.924;4.396;2023-08-21T02:39:40;20.80;99.90
19829;DHT22;10075;50.924;4.396;2023-08-21T02:42:07;20.70;99.90
19829;DHT22;10075;50.924;4.396;2023-08-21T02:44:34;20.70;99.90
19829;DHT22;10075;50.924;4.396;2023-08-21T02:47:01;20.60;99.90
19829;DHT22;10075;50.924;4.396;2023-08-21T02:49:29;20.60;99.90
19829;DHT22;10075;50.924;4.396;2023-08-21T02:51:56;20.60;99.90
19829;DHT22;10075;50.924;4.396;2023-08-21T02:54:23;20.60;99.90
19829;DHT22;10075;50.924;4.396;2023-08-21T02:56:50;20.60;99.90
19829;DHT22;10075;50.924;4.396;2023-08-21T02:59:17;20.60;99.90
19829;DHT22;10075;50.924;4.396;2023-08-21T03:01:44;20.50;99.90
19829;DHT22;10075;50.924;4.396;2023-08-21T03:04:11;20.50;99.90
19829;DHT22;10075;50.924;4.396;2023-08-21T03:06:39;20.50;99.90
19829;DHT22;10075;50.924;4.396;2023-08-21T03:09:06;20.50;99.90
19829;DHT22;10075;50.924;4.396;2023-08-21T03:11:33;20.50;99.90
19829;DHT22;10075;50.924;4.396;2023-08-21T03:14:00;20.50;99.90
19829;DHT22;10075;50.924;4.396;2023-08-21T03:16:27;20.50;99.90
19829;DHT22;10075;50.924;4.396;2023-08-21T03:18:55;20.50;99.90
19829;DHT22;10075;50.924;4.396;2023-08-21T03:21:23;20.50;99.90
19829;DHT22;10075;50.924;4.396;2023-08-21T03:23:56;20.40;99.90
19829;DHT22;10075;50.924;4.396;2023-08-21T03:26:25;20.40;99.90
19829;DHT22;10075;50.924;4.396;2023-08-21T03:28:52;20.30;99.90
19829;DHT22;10075;50.924;4.396;2023-08-21T03:31:19;20.30;99.90
19829;DHT22;10075;50.924;4.396;2023-08-21T03:33:46;20.40;99.90
19829;DHT22;10075;50.924;4.396;2023-08-21T03:36:13;20.30;99.90
19829;DHT22;10075;50.924;4.396;2023-08-21T03:38:40;20.30;99.90
19829;DHT22;10075;50.924;4.396;2023-08-21T03:41:09;20.30;99.90
19829;DHT22;10075;50.924;4.396;2023-08-21T03:43:35;20.40;99.90
19829;DHT22;10075;50.924;4.396;2023-08-21T03:46:02;20.40;99.90
19829;DHT22;10075;50.924;4.396;2023-08-21T03:48:29;20.30;99.90
19829;DHT22;10075;50.924;4.396;2023-08-21T03:50:56;20.40;99.90
19829;DHT22;10075;50.924;4.396;2023-08-21T03:53:23;20.30;99.90
19829;DHT22;10075;50.924;4.396;2023-08-21T03:55:50;20.30;99.90
19829;DHT22;10075;50.924;4.396;2023-08-21T03:58:19;20.20;99.90
19829;DHT22;10075;50.924;4.396;2023-08-21T04:00:46;20.20;99.90
19829;DHT22;10075;50.924;4.396;2023-08-21T04:03:13;20.20;99.90
19829;DHT22;10075;50.924;4.396;2023-08-21T04:05:40;20.20;99.90
19829;DHT22;10075;50.924;4.396;2023-08-21T04:08:07;20.20;99.90
19829;DHT22;10075;50.924;4.396;2023-08-21T04:10:34;20.10;99.90
19829;DHT22;10075;50.924;4.396;2023-08-21T04:13:01;20.20;99.90
19829;DHT22;10075;50.924;4.396;2023-08-21T04:15:30;20.10;99.90
19829;DHT22;10075;50.924;4.396;2023-08-21T04:17:57;20.10;99.90
19829;DHT22;10075;50.924;4.396;2023-08-21T04:20:24;20.00;99.90
19829;DHT22;10075;50.924;4.396;2023-08-21T04:22:51;20.00;99.90
19829;DHT22;10075;50.924;4.396;2023-08-21T04:25:18;20.00;99.90
19829;DHT22;10075;50.924;4.396;2023-08-21T04:27:45;20.00;99.90
19829;DHT22;10075;50.924;4.396;2023-08-21T04:30:12;20.00;99.90
19829;DHT22;10075;50.924;4.396;2023-08-21T04:32:40;19.90;99.90
19829;DHT22;10075;50.924;4.396;2023-08-21T04:35:08;19.90;99.90
19829;DHT22;10075;50.924;4.396;2023-08-21T04:37:37;19.90;99.90
19829;DHT22;10075;50.924;4.396;2023-08-21T04:40:05;19.90;99.90
19829;DHT22;10075;50.924;4.396;2023-08-21T04:42:32;19.90;99.90
19829;DHT22;10075;50.924;4.396;2023-08-21T04:44:59;19.90;99.90
19829;DHT22;10075;50.924;4.396;2023-08-21T04:47:28;19.90;99.90
19829;DHT22;10075;50.924;4.396;2023-08-21T04:49:56;19.90;99.90
19829;DHT22;10075;50.924;4.396;2023-08-21T04:52:24;19.80;99.90
19829;DHT22;10075;50.924;4.396;2023-08-21T04:54:51;19.80;99.90
19829;DHT22;10075;50.924;4.396;2023-08-21T04:57:18;19.80;99.90
19829;DHT22;10075;50.924;4.396;2023-08-21T04:59:46;19.80;99.90
19829;DHT22;10075;50.924;4.396;2023-08-21T05:02:14;19.80;99.90
19829;DHT22;10075;50.924;4.396;2023-08-21T05:04:41;19.80;99.90
19829;DHT22;10075;50.924;4.396;2023-08-21T05:07:09;19.80;99.90
19829;DHT22;10075;50.924;4.396;2023-08-21T05:09:36;19.80;99.90
19829;DHT22;10075;50.924;4.396;2023-08-21T05:12:04;19.90;99.90
19829;DHT22;10075;50.924;4.396;2023-08-21T05:14:31;19.90;99.90
19829;DHT22;10075;50.924;4.396;2023-08-21T05:16:58;19.90;99.90
19829;DHT22;10075;50.924;4.396;2023-08-21T05:19:25;20.00;99.90
19829;DHT22;10075;50.924;4.396;2023-08-21T05:21:52;20.10;99.90
19829;DHT22;10075;50.924;4.396;2023-08-21T05:24:20;20.10;99.90
19829;DHT22;10075;50.924;4.396;2023-08-21T05:26:47;20.10;99.90
19829;DHT22;10075;50.924;4.396;2023-08-21T05:29:14;20.10;99.90
19829;DHT22;10075;50.924;4.396;2023-08-21T05:31:41;20.20;99.90
19829;DHT22;10075;50.924;4.396;2023-08-21T05:34:08;20.20;99.90
19829;DHT22;10075;50.924;4.396;2023-08-21T05:36:35;20.20;99.90
19829;DHT22;10075;50.924;4.396;2023-08-21T05:39:04;20.20;99.90
19829;DHT22;10075;50.924;4.396;2023-08-21T05:41:33;20.20;99.90
19829;DHT22;10075;50.924;4.396;2023-08-21T05:44:00;20.30;99.90
19829;DHT22;10075;50.924;4.396;2023-08-21T05:46:27;20.30;99.90
19829;DHT22;10075;50.924;4.396;2023-08-21T05:48:54;20.30;99.90
19829;DHT22;10075;50.924;4.396;2023-08-21T05:51:21;20.40;99.90
19829;DHT22;10075;50.924;4.396;2023-08-21T05:53:48;20.40;99.90
19829;DHT22;10075;50.924;4.396;2023-08-21T05:56:15;20.40;99.90
19829;DHT22;10075;50.924;4.396;2023-08-21T05:58:43;20.50;99.90
19829;DHT22;10075;50.924;4.396;2023-08-21T06:01:11;20.50;99.90
19829;DHT22;10075;50.924;4.396;2023-08-21T06:03:38;20.60;99.90
19829;DHT22;10075;50.924;4.396;2023-08-21T06:06:05;20.70;99.90
19829;DHT22;10075;50.924;4.396;2023-08-21T06:08:32;20.80;99.90
19829;DHT22;10075;50.924;4.396;2023-08-21T06:10:59;20.90;99.90
19829;DHT22;10075;50.924;4.396;2023-08-21T06:13:26;20.90;99.90
19829;DHT22;10075;50.924;4.396;2023-08-21T06:15:54;20.90;99.90
19829;DHT22;10075;50.924;4.396;2023-08-21T06:18:21;21.10;99.90
19829;DHT22;10075;50.924;4.396;2023-08-21T06:20:49;21.10;99.90
19829;DHT22;10075;50.924;4.396;2023-08-21T06:23:19;21.10;99.90
19829;DHT22;10075;50.924;4.396;2023-08-21T06:25:47;21.10;99.90
19829;DHT22;10075;50.924;4.396;2023-08-21T06:28:14;21.20;99.90
19829;DHT22;10075;50.924;4.396;2023-08-21T06:30:41;21.30;99.90
19829;DHT22;10075;50.924;4.396;2023-08-21T06:33:10;21.30;99.90
19829;DHT22;10075;50.924;4.396;2023-08-21T06:35:37;21.40;99.90
19829;DHT22;10075;50.924;4.396;2023-08-21T06:38:05;21.50;99.90
19829;DHT22;10075;50.924;4.396;2023-08-21T06:40:32;21.60;99.90
19829;DHT22;10075;50.924;4.396;2023-08-21T06:42:59;21.60;99.90
19829;DHT22;10075;50.924;4.396;2023-08-21T06:45:26;21.60;99.90
19829;DHT22;10075;50.924;4.396;2023-08-21T06:47:56;21.70;99.90
19829;DHT22;10075;50.924;4.396;2023-08-21T06:50:24;21.70;99.90
19829;DHT22;10075;50.924;4.396;2023-08-21T06:52:51;21.70;99.90
19829;DHT22;10075;50.924;4.396;2023-08-21T06:55:18;21.70;99.90
19829;DHT22;10075;50.924;4.396;2023-08-21T06:57:45;21.70;99.90
19829;DHT22;10075;50.924;4.396;2023-08-21T07:00:13;21.90;99.90
19829;DHT22;10075;50.924;4.396;2023-08-21T07:02:40;21.80;99.90
19829;DHT22;10075;50.924;4.396;2023-08-21T07:05:07;21.80;99.90
19829;DHT22;10075;50.924;4.396;2023-08-21T07:07:36;21.80;99.90
19829;DHT22;10075;50.924;4.396;2023-08-21T07:10:03;21.80;99.90
19829;DHT22;10075;50.924;4.396;2023-08-21T07:12:30;21.80;99.90
19829;DHT22;10075;50.924;4.396;2023-08-21T07:14:57;22.00;99.90
19829;DHT22;10075;50.924;4.396;2023-08-21T07:17:24;22.00;99.90
19829;DHT22;10075;50.924;4.396;2023-08-21T07:19:51;22.20;99.90
19829;DHT22;10075;50.924;4.396;2023-08-21T07:22:19;22.20;99.90
19829;DHT22;10075;50.924;4.396;2023-08-21T07:24:47;22.20;99.90
19829;DHT22;10075;50.924;4.396;2023-08-21T07:27:14;22.30;99.90
19829;DHT22;10075;50.924;4.396;2023-08-21T07:29:41;22.30;99.90
19829;DHT22;10075;50.924;4.396;2023-08-21T07:32:08;22.40;99.90
19829;DHT22;10075;50.924;4.396;2023-08-21T07:34:35;22.50;99.90
19829;DHT22;10075;50.924;4.396;2023-08-21T07:37:02;22.60;99.90
19829;DHT22;10075;50.924;4.396;2023-08-21T07:39:29;22.60;99.90
19829;DHT22;10075;50.924;4.396;2023-08-21T07:41:57;22.70;99.90
19829;DHT22;10075;50.924;4.396;2023-08-21T07:44:24;22.70;99.90
19829;DHT22;10075;50.924;4.396;2023-08-21T07:46:51;22.80;99.90
19829;DHT22;10075;50.924;4.396;2023-08-21T07:49:18;22.90;99.90
19829;DHT22;10075;50.924;4.396;2023-08-21T07:51:45;22.90;99.90
19829;DHT22;10075;50.924;4.396;2023-08-21T07:54:12;23.10;99.90
19829;DHT22;10075;50.924;4.396;2023-08-21T07:56:39;23.10;99.90
19829;DHT22;10075;50.924;4.396;2023-08-21T07:59:08;23.20;99.90
19829;DHT22;10075;50.924;4.396;2023-08-21T08:01:35;23.30;99.90
19829;DHT22;10075;50.924;4.396;2023-08-21T08:04:02;23.40;99.90
19829;DHT22;10075;50.924;4.396;2023-08-21T08:06:29;23.40;99.90
19829;DHT22;10075;50.924;4.396;2023-08-21T08:08:56;23.60;99.90
19829;DHT22;10075;50.924;4.396;2023-08-21T08:11:23;23.60;99.90
19829;DHT22;10075;50.924;4.396;2023-08-21T08:13:50;23.80;99.90
19829;DHT22;10075;50.924;4.396;2023-08-21T08:16:18;23.90;99.90
19829;DHT22;10075;50.924;4.396;2023-08-21T08:18:46;24.00;99.90
19829;DHT22;10075;50.924;4.396;2023-08-21T08:21:14;24.10;99.90
19829;DHT22;10075;50.924;4.396;2023-08-21T08:23:41;24.30;99.90
19829;DHT22;10075;50.924;4.396;2023-08-21T08:26:08;24.40;99.90
19829;DHT22;10075;50.924;4.396;2023-08-21T08:28:35;24.50;99.90
19829;DHT22;10075;50.924;4.396;2023-08-21T08:31:02;24.60;99.90
19829;DHT22;10075;50.924;4.396;2023-08-21T08:33:30;24.60;99.90
19829;DHT22;10075;50.924;4.396;2023-08-21T08:35:57;24.70;99.90
19829;DHT22;10075;50.924;4.396;2023-08-21T08:38:24;24.80;99.90
19829;DHT22;10075;50.924;4.396;2023-08-21T08:40:51;24.90;99.90
19829;DHT22;10075;50.924;4.396;2023-08-21T08:43:21;25.00;99.90
19829;DHT22;10075;50.924;4.396;2023-08-21T08:45:49;25.10;99.90
19829;DHT22;10075;50.924;4.396;2023-08-21T08:48:18;25.10;99.90
19829;DHT22;10075;50.924;4.396;2023-08-21T08:50:47;25.10;99.90
19829;DHT22;10075;50.924;4.396;2023-08-21T08:53:18;25.00;99.90
19829;DHT22;10075;50.924;4.396;2023-08-21T08:55:45;25.00;99.90
19829;DHT22;10075;50.924;4.396;2023-08-21T08:58:12;24.90;99.90
19829;DHT22;10075;50.924;4.396;2023-08-21T09:00:39;24.90;99.90
19829;DHT22;10075;50.924;4.396;2023-08-21T09:03:06;25.00;99.90
19829;DHT22;10075;50.924;4.396;2023-08-21T09:05:34;25.00;99.90
19829;DHT22;10075;50.924;4.396;2023-08-21T09:08:10;25.00;99.90
19829;DHT22;10075;50.924;4.396;2023-08-21T09:10:37;25.00;99.90
19829;DHT22;10075;50.924;4.396;2023-08-21T09:13:10;25.10;99.90
19829;DHT22;10075;50.924;4.396;2023-08-21T09:15:37;25.20;99.90
19829;DHT22;10075;50.924;4.396;2023-08-21T09:18:04;25.10;99.90
19829;DHT22;10075;50.924;4.396;2023-08-21T09:20:35;25.10;99.90
19829;DHT22;10075;50.924;4.396;2023-08-21T09:23:02;25.10;99.90
19829;DHT22;10075;50.924;4.396;2023-08-21T09:25:35;25.20;99.90
19829;DHT22;10075;50.924;4.396;2023-08-21T09:28:04;25.30;99.90
19829;DHT22;10075;50.924;4.396;2023-08-21T09:30:47;25.40;99.90
19829;DHT22;10075;50.924;4.396;2023-08-21T09:33:14;25.60;99.90
19829;DHT22;10075;50.924;4.396;2023-08-21T09:35:43;25.70;99.90
19829;DHT22;10075;50.924;4.396;2023-08-21T09:38:10;25.70;99.90
19829;DHT22;10075;50.924;4.396;2023-08-21T09:40:41;25.80;99.90
19829;DHT22;10075;50.924;4.396;2023-08-21T09:43:08;25.90;99.90
19829;DHT22;10075;50.924;4.396;2023-08-21T09:45:36;25.80;99.90
19829;DHT22;10075;50.924;4.396;2023-08-21T09:48:04;25.80;99.90
19829;DHT22;10075;50.924;4.396;2023-08-21T09:50:32;25.80;99.90
19829;DHT22;10075;50.924;4.396;2023-08-21T09:53:01;25.90;99.90
19829;DHT22;10075;50.924;4.396;2023-08-21T09:55:31;25.90;99.40
19829;DHT22;10075;50.924;4.396;2023-08-21T09:58:00;25.80;99.20
19829;DHT22;10075;50.924;4.396;2023-08-21T10:00:31;25.80;96.70
19829;DHT22;10075;50.924;4.396;2023-08-21T10:03:01;25.90;96.80
19829;DHT22;10075;50.924;4.396;2023-08-21T10:05:30;25.90;97.30
19829;DHT22;10075;50.924;4.396;2023-08-21T10:08:01;25.90;94.50
19829;DHT22;10075;50.924;4.396;2023-08-21T10:10:30;26.00;93.50
19829;DHT22;10075;50.924;4.396;2023-08-21T10:12:58;25.90;92.90
19829;DHT22;10075;50.924;4.396;2023-08-21T10:15:28;25.90;92.80
19829;DHT22;10075;50.924;4.396;2023-08-21T10:17:55;26.10;93.50
19829;DHT22;10075;50.924;4.396;2023-08-21T10:20:24;26.20;92.60
19829;DHT22;10075;50.924;4.396;2023-08-21T10:22:53;26.30;94.00
19829;DHT22;10075;50.924;4.396;2023-08-21T10:25:21;26.40;94.10
19829;DHT22;10075;50.924;4.396;2023-08-21T10:27:53;26.40;93.30
19829;DHT22;10075;50.924;4.396;2023-08-21T10:30:21;26.30;92.70
19829;DHT22;10075;50.924;4.396;2023-08-21T10:32:52;26.30;93.00
19829;DHT22;10075;50.924;4.396;2023-08-21T10:35:21;26.40;92.40
19829;DHT22;10075;50.924;4.396;2023-08-21T10:38:10;26.50;92.40
19829;DHT22;10075;50.924;4.396;2023-08-21T10:40:40;26.50;91.60
19829;DHT22;10075;50.924;4.396;2023-08-21T10:43:39;26.50;91.10
19829;DHT22;10075;50.924;4.396;2023-08-21T10:46:06;26.70;91.90
19829;DHT22;10075;50.924;4.396;2023-08-21T10:48:36;26.80;92.20
19829;DHT22;10075;50.924;4.396;2023-08-21T10:51:04;26.90;92.20
19829;DHT22;10075;50.924;4.396;2023-08-21T10:53:32;26.90;91.70
19829;DHT22;10075;50.924;4.396;2023-08-21T10:56:02;27.00;92.00
19829;DHT22;10075;50.924;4.396;2023-08-21T10:58:34;27.10;91.60
19829;DHT22;10075;50.924;4.396;2023-08-21T11:01:01;27.20;91.70
19829;DHT22;10075;50.924;4.396;2023-08-21T11:03:28;27.10;90.90
19829;DHT22;10075;50.924;4.396;2023-08-21T11:06:05;27.20;91.00
19829;DHT22;10075;50.924;4.396;2023-08-21T11:08:32;27.30;91.00
19829;DHT22;10075;50.924;4.396;2023-08-21T11:10:59;27.40;90.50
19829;DHT22;10075;50.924;4.396;2023-08-21T11:13:26;27.50;90.40
19829;DHT22;10075;50.924;4.396;2023-08-21T11:16:00;27.60;90.00
19829;DHT22;10075;50.924;4.396;2023-08-21T11:18:31;27.60;90.30
19829;DHT22;10075;50.924;4.396;2023-08-21T11:21:06;27.60;90.80
19829;DHT22;10075;50.924;4.396;2023-08-21T11:23:34;27.50;91.20
19829;DHT22;10075;50.924;4.396;2023-08-21T11:26:01;27.60;91.60
19829;DHT22;10075;50.924;4.396;2023-08-21T11:28:30;27.40;91.60
19829;DHT22;10075;50.924;4.396;2023-08-21T11:30:58;27.50;91.40
19829;DHT22;10075;50.924;4.396;2023-08-21T11:33:26;27.30;91.70
19829;DHT22;10075;50.924;4.396;2023-08-21T11:35:54;27.20;92.20
19829;DHT22;10075;50.924;4.396;2023-08-21T11:38:25;27.30;93.00
19829;DHT22;10075;50.924;4.396;2023-08-21T11:40:54;27.40;92.80
19829;DHT22;10075;50.924;4.396;2023-08-21T11:43:22;27.40;92.60
19829;DHT22;10075;50.924;4.396;2023-08-21T11:45:49;27.40;92.60
19829;DHT22;10075;50.924;4.396;2023-08-21T11:48:19;27.50;93.10
19829;DHT22;10075;50.924;4.396;2023-08-21T11:50:48;27.50;93.30
19829;DHT22;10075;50.924;4.396;2023-08-21T11:53:15;27.70;93.00
19829;DHT22;10075;50.924;4.396;2023-08-21T11:55:56;27.80;92.70
19829;DHT22;10075;50.924;4.396;2023-08-21T11:58:23;27.90;92.80
19829;DHT22;10075;50.924;4.396;2023-08-21T12:00:50;27.90;92.30
19829;DHT22;10075;50.924;4.396;2023-08-21T12:03:18;28.00;92.90
19829;DHT22;10075;50.924;4.396;2023-08-21T12:05:45;28.00;92.70
19829;DHT22;10075;50.924;4.396;2023-08-21T12:08:12;28.10;92.90
19829;DHT22;10075;50.924;4.396;2023-08-21T12:10:39;28.10;92.50
19829;DHT22;10075;50.924;4.396;2023-08-21T12:13:07;27.90;92.50
19829;DHT22;10075;50.924;4.396;2023-08-21T12:15:34;27.80;92.00
19829;DHT22;10075;50.924;4.396;2023-08-21T12:18:01;27.70;92.60
19829;DHT22;10075;50.924;4.396;2023-08-21T12:20:28;27.70;93.00
19829;DHT22;10075;50.924;4.396;2023-08-21T12:22:55;27.70;91.90
19829;DHT22;10075;50.924;4.396;2023-08-21T12:25:22;27.60;92.30
19829;DHT22;10075;50.924;4.396;2023-08-21T12:27:49;27.60;92.00
19829;DHT22;10075;50.924;4.396;2023-08-21T12:30:18;27.60;92.60
19829;DHT22;10075;50.924;4.396;2023-08-21T12:32:45;27.60;92.40
19829;DHT22;10075;50.924;4.396;2023-08-21T12:35:11;27.60;92.80
19829;DHT22;10075;50.924;4.396;2023-08-21T12:37:38;27.70;92.40
19829;DHT22;10075;50.924;4.396;2023-08-21T12:40:07;27.80;91.50
19829;DHT22;10075;50.924;4.396;2023-08-21T12:42:34;27.70;92.10
19829;DHT22;10075;50.924;4.396;2023-08-21T12:45:01;27.70;91.90
19829;DHT22;10075;50.924;4.396;2023-08-21T12:47:30;27.80;92.20
19829;DHT22;10075;50.924;4.396;2023-08-21T12:49:57;27.80;92.90
19829;DHT22;10075;50.924;4.396;2023-08-21T12:52:24;27.80;92.70
19829;DHT22;10075;50.924;4.396;2023-08-21T12:54:50;27.90;92.40
19829;DHT22;10075;50.924;4.396;2023-08-21T12:57:17;28.00;91.60
19829;DHT22;10075;50.924;4.396;2023-08-21T12:59:44;28.00;91.60
19829;DHT22;10075;50.924;4.396;2023-08-21T13:02:11;27.90;91.30
19829;DHT22;10075;50.924;4.396;2023-08-21T13:04:39;27.90;91.10
19829;DHT22;10075;50.924;4.396;2023-08-21T13:07:06;27.90;91.60
19829;DHT22;10075;50.924;4.396;2023-08-21T13:09:33;27.90;91.60
19829;DHT22;10075;50.924;4.396;2023-08-21T13:12:00;28.00;92.00
19829;DHT22;10075;50.924;4.396;2023-08-21T13:14:27;28.00;91.60
19829;DHT22;10075;50.924;4.396;2023-08-21T13:16:54;28.00;91.80
19829;DHT22;10075;50.924;4.396;2023-08-21T13:19:21;27.90;92.00
19829;DHT22;10075;50.924;4.396;2023-08-21T13:21:49;27.90;91.10
19829;DHT22;10075;50.924;4.396;2023-08-21T13:24:17;28.00;90.80
19829;DHT22;10075;50.924;4.396;2023-08-21T13:26:43;28.00;90.60
19829;DHT22;10075;50.924;4.396;2023-08-21T13:29:10;27.90;90.50
19829;DHT22;10075;50.924;4.396;2023-08-21T13:31:37;27.90;90.60
19829;DHT22;10075;50.924;4.396;2023-08-21T13:34:04;28.00;90.80
19829;DHT22;10075;50.924;4.396;2023-08-21T13:36:31;27.90;89.60
19829;DHT22;10075;50.924;4.396;2023-08-21T13:39:00;27.90;90.20
19829;DHT22;10075;50.924;4.396;2023-08-21T13:41:27;27.90;90.30
19829;DHT22;10075;50.924;4.396;2023-08-21T13:43:53;28.00;88.40
19829;DHT22;10075;50.924;4.396;2023-08-21T13:46:20;28.00;89.20
19829;DHT22;10075;50.924;4.396;2023-08-21T13:48:47;28.10;89.20
19829;DHT22;10075;50.924;4.396;2023-08-21T13:51:15;28.10;88.80
19829;DHT22;10075;50.924;4.396;2023-08-21T13:53:42;28.00;87.10
19829;DHT22;10075;50.924;4.396;2023-08-21T13:56:10;28.10;86.00
19829;DHT22;10075;50.924;4.396;2023-08-21T13:58:37;28.20;87.00
19829;DHT22;10075;50.924;4.396;2023-08-21T14:01:04;28.20;87.80
19829;DHT22;10075;50.924;4.396;2023-08-21T14:03:32;28.20;87.80
19829;DHT22;10075;50.924;4.396;2023-08-21T14:05:59;28.20;85.40
19829;DHT22;10075;50.924;4.396;2023-08-21T14:08:26;28.20;83.80
19829;DHT22;10075;50.924;4.396;2023-08-21T14:10:53;28.00;84.50
19829;DHT22;10075;50.924;4.396;2023-08-21T14:13:21;28.00;85.60
19829;DHT22;10075;50.924;4.396;2023-08-21T14:15:48;28.20;84.70
19829;DHT22;10075;50.924;4.396;2023-08-21T14:18:15;28.10;84.00
19829;DHT22;10075;50.924;4.396;2023-08-21T14:20:42;28.10;84.40
19829;DHT22;10075;50.924;4.396;2023-08-21T14:23:09;28.20;83.80
19829;DHT22;10075;50.924;4.396;2023-08-21T14:25:36;28.20;83.90
19829;DHT22;10075;50.924;4.396;2023-08-21T14:28:04;28.20;85.20
19829;DHT22;10075;50.924;4.396;2023-08-21T14:30:33;28.20;82.50
19829;DHT22;10075;50.924;4.396;2023-08-21T14:33:00;28.20;81.70
19829;DHT22;10075;50.924;4.396;2023-08-21T14:35:27;28.20;82.90
19829;DHT22;10075;50.924;4.396;2023-08-21T14:37:54;28.20;83.70
19829;DHT22;10075;50.924;4.396;2023-08-21T14:40:21;28.30;81.20
19829;DHT22;10075;50.924;4.396;2023-08-21T14:42:48;28.40;80.80
19829;DHT22;10075;50.924;4.396;2023-08-21T14:45:15;28.50;82.40
19829;DHT22;10075;50.924;4.396;2023-08-21T14:47:43;28.80;82.10
19829;DHT22;10075;50.924;4.396;2023-08-21T14:50:10;29.90;82.00
19829;DHT22;10075;50.924;4.396;2023-08-21T14:52:37;31.50;77.70
19829;DHT22;10075;50.924;4.396;2023-08-21T14:55:04;33.00;73.40
19829;DHT22;10075;50.924;4.396;2023-08-21T14:57:31;34.00;69.70
19829;DHT22;10075;50.924;4.396;2023-08-21T14:59:58;35.50;66.70
19829;DHT22;10075;50.924;4.396;2023-08-21T15:02:25;37.30;65.10
19829;DHT22;10075;50.924;4.396;2023-08-21T15:04:54;38.80;59.00
19829;DHT22;10075;50.924;4.396;2023-08-21T15:07:21;39.60;56.30
19829;DHT22;10075;50.924;4.396;2023-08-21T15:09:48;40.50;54.60
19829;DHT22;10075;50.924;4.396;2023-08-21T15:12:15;41.00;53.60
19829;DHT22;10075;50.924;4.396;2023-08-21T15:14:42;41.90;52.60
19829;DHT22;10075;50.924;4.396;2023-08-21T15:17:09;42.20;50.50
19829;DHT22;10075;50.924;4.396;2023-08-21T15:19:36;42.60;49.80
19829;DHT22;10075;50.924;4.396;2023-08-21T15:22:04;42.80;49.20
19829;DHT22;10075;50.924;4.396;2023-08-21T15:24:31;42.30;48.40
19829;DHT22;10075;50.924;4.396;2023-08-21T15:26:58;42.90;48.50
19829;DHT22;10075;50.924;4.396;2023-08-21T15:29:25;43.90;47.70
19829;DHT22;10075;50.924;4.396;2023-08-21T15:31:52;45.00;46.50
19829;DHT22;10075;50.924;4.396;2023-08-21T15:34:19;45.60;44.90